createdAt,value
2022-12-15T00:00:20.023Z,39.58
2022-12-15T00:03:05.596Z,39.67
2022-12-15T00:05:50.980Z,40.15
2022-12-15T00:08:36.487Z,43.25
2022-12-15T00:11:22.382Z,40.03
2022-12-15T00:14:07.862Z,41.30
2022-12-15T00:16:53.849Z,41.42
2022-12-15T00:19:39.204Z,40.22
2022-12-15T00:22:25.228Z,39.67
2022-12-15T00:25:10.675Z,39.45
2022-12-15T00:27:56.078Z,40.22
2022-12-15T00:30:41.489Z,38.15
2022-12-15T00:33:29.924Z,37.95
2022-12-15T00:36:18.075Z,41.58
2022-12-15T00:38:45.959Z,42.85
2022-12-15T00:41:16.292Z,39.53
2022-12-15T00:43:43.187Z,41.97
2022-12-15T00:46:29.361Z,39.97
2022-12-15T00:48:56.753Z,39.70
2022-12-15T00:51:42.981Z,40.55
2022-12-15T00:54:29.130Z,43.47
2022-12-15T00:57:14.475Z,40.83
2022-12-15T00:59:59.995Z,41.50
2022-12-15T01:02:46.787Z,38.78
2022-12-15T01:05:32.305Z,41.00
2022-12-15T01:08:18.725Z,41.58
2022-12-15T01:11:04.128Z,40.03
2022-12-15T01:13:49.874Z,42.63
2022-12-15T01:16:35.897Z,42.28
2022-12-15T01:19:21.576Z,43.83
2022-12-15T01:21:49.775Z,46.10
2022-12-15T01:24:16.712Z,50.92
2022-12-15T01:26:43.476Z,48.67
2022-12-15T01:29:10.199Z,50.40
2022-12-15T01:31:37.010Z,43.45
2022-12-15T01:34:03.900Z,43.53
2022-12-15T01:36:30.707Z,44.83
2022-12-15T01:38:57.412Z,44.45
2022-12-15T01:41:24.839Z,43.60
2022-12-15T01:43:51.578Z,42.40
2022-12-15T01:46:23.174Z,46.40
2022-12-15T01:49:05.347Z,43.63
2022-12-15T01:51:37.350Z,41.97
2022-12-15T01:54:29.266Z,42.92
2022-12-15T01:57:06.341Z,43.13
2022-12-15T01:59:48.778Z,41.53
2022-12-15T02:02:17.932Z,42.22
2022-12-15T02:04:45.827Z,41.42
2022-12-15T02:07:15.849Z,41.55
2022-12-15T02:09:46.996Z,44.13
2022-12-15T02:12:48.893Z,42.80
2022-12-15T02:16:02.128Z,39.45
2022-12-15T02:18:40.362Z,39.67
2022-12-15T02:21:42.171Z,40.78
2022-12-15T02:24:49.642Z,37.97
2022-12-15T02:27:44.277Z,40.75
2022-12-15T02:30:26.327Z,39.45
2022-12-15T02:33:29.993Z,42.90
2022-12-15T02:36:08.691Z,38.47
2022-12-15T02:38:41.597Z,38.83
2022-12-15T02:41:37.673Z,29.30
2022-12-15T02:44:19.777Z,38.25
2022-12-15T02:47:10.749Z,39.63
2022-12-15T02:50:29.492Z,40.15
2022-12-15T02:53:28.487Z,39.13
2022-12-15T02:56:17.822Z,38.97
2022-12-15T02:59:11.245Z,39.88
2022-12-15T03:01:51.996Z,29.08
2022-12-15T03:04:20.128Z,37.75
2022-12-15T03:07:01.031Z,41.92
2022-12-15T03:09:29.598Z,39.58
2022-12-15T03:11:56.602Z,36.95
2022-12-15T03:14:25.436Z,40.72
2022-12-15T03:16:53.925Z,38.00
2022-12-15T03:19:21.350Z,40.03
2022-12-15T03:21:48.073Z,39.50
2022-12-15T03:24:14.873Z,38.88
2022-12-15T03:26:42.111Z,38.85
2022-12-15T03:29:08.839Z,35.72
2022-12-15T03:31:35.955Z,37.30
2022-12-15T03:34:02.717Z,38.92
2022-12-15T03:36:29.473Z,39.75
2022-12-15T03:38:56.217Z,37.28
2022-12-15T03:41:22.972Z,38.55
2022-12-15T03:43:50.165Z,34.40
2022-12-15T03:46:17.384Z,37.20
2022-12-15T03:48:44.165Z,38.50
2022-12-15T03:51:10.902Z,41.42
2022-12-15T03:53:37.653Z,38.50
2022-12-15T03:56:04.533Z,40.50
2022-12-15T03:58:31.310Z,39.38
2022-12-15T04:00:58.134Z,39.72
2022-12-15T04:03:25.010Z,36.65
2022-12-15T04:05:51.929Z,38.05
2022-12-15T04:08:18.659Z,37.80
2022-12-15T04:10:45.366Z,34.88
2022-12-15T04:13:12.534Z,32.95
2022-12-15T04:15:41.787Z,38.03
2022-12-15T04:18:11.048Z,36.72
2022-12-15T04:20:40.166Z,34.33
2022-12-15T04:23:07.985Z,34.10
2022-12-15T04:25:55.191Z,34.55
2022-12-15T04:28:41.137Z,36.13
2022-12-15T04:31:30.856Z,34.78
2022-12-15T04:34:26.501Z,36.28
2022-12-15T04:37:12.602Z,33.90
2022-12-15T04:40:04.229Z,33.45
2022-12-15T04:42:52.510Z,36.92
2022-12-15T04:45:42.304Z,32.78
2022-12-15T04:48:28.705Z,32.63
2022-12-15T04:51:14.156Z,35.65
2022-12-15T04:54:03.622Z,37.70
2022-12-15T04:56:50.497Z,40.55
2022-12-15T04:59:36.368Z,35.75
2022-12-15T05:02:22.003Z,39.13
2022-12-15T05:05:07.261Z,35.63
2022-12-15T05:07:52.552Z,39.58
2022-12-15T05:10:37.783Z,36.85
2022-12-15T05:13:27.019Z,36.38
2022-12-15T05:16:12.447Z,30.80
2022-12-15T05:18:58.566Z,33.05
2022-12-15T05:21:43.944Z,33.45
2022-12-15T05:24:29.259Z,32.22
2022-12-15T05:27:14.559Z,32.17
2022-12-15T05:30:00.008Z,32.70
2022-12-15T05:32:26.749Z,32.85
2022-12-15T05:34:53.471Z,34.03
2022-12-15T05:37:20.219Z,35.13
2022-12-15T05:39:47.010Z,35.03
2022-12-15T05:42:13.908Z,33.97
2022-12-15T05:44:40.813Z,36.08
2022-12-15T05:47:09.182Z,35.38
2022-12-15T05:49:35.893Z,34.85
2022-12-15T05:52:03.205Z,32.28
2022-12-15T05:54:29.961Z,33.80
2022-12-15T05:56:56.724Z,29.80
2022-12-15T05:59:23.490Z,31.42
2022-12-15T06:01:50.265Z,32.55
2022-12-15T06:04:17.200Z,35.08
2022-12-15T06:06:43.954Z,33.28
2022-12-15T06:09:10.977Z,33.05
2022-12-15T06:11:37.813Z,34.55
2022-12-15T06:14:05.078Z,33.72
2022-12-15T06:16:32.516Z,34.17
2022-12-15T06:19:02.648Z,36.25
2022-12-15T06:21:36.562Z,34.08
2022-12-15T06:26:37.281Z,30.90
2022-12-15T06:29:11.220Z,34.10
2022-12-15T06:34:11.143Z,33.83
2022-12-15T06:36:39.138Z,34.25
2022-12-15T06:39:10.548Z,36.60
2022-12-15T06:41:37.863Z,33.85
2022-12-15T06:44:05.556Z,35.33
2022-12-15T06:46:34.983Z,36.28
2022-12-15T06:49:02.133Z,35.20
2022-12-15T06:51:29.155Z,39.85
2022-12-15T06:53:56.384Z,38.42
2022-12-15T06:56:33.915Z,40.22
2022-12-15T06:59:03.527Z,35.03
2022-12-15T07:01:31.849Z,34.42
2022-12-15T07:04:01.356Z,33.10
2022-12-15T07:06:36.141Z,34.42
2022-12-15T07:09:05.150Z,32.97
2022-12-15T07:11:32.029Z,32.15
2022-12-15T07:13:58.845Z,33.45
2022-12-15T07:16:25.625Z,32.55
2022-12-15T07:18:52.511Z,31.98
2022-12-15T07:21:19.299Z,32.22
2022-12-15T07:23:54.555Z,31.95
2022-12-15T07:26:23.235Z,31.05
2022-12-15T07:28:49.974Z,31.00
2022-12-15T07:31:16.785Z,31.25
2022-12-15T07:33:43.738Z,32.47
2022-12-15T07:36:10.950Z,32.17
2022-12-15T07:38:37.760Z,32.30
2022-12-15T07:41:07.870Z,31.40
2022-12-15T07:43:35.905Z,33.55
2022-12-15T07:46:05.015Z,31.23
2022-12-15T07:48:33.201Z,32.22
2022-12-15T07:51:15.230Z,33.63
2022-12-15T07:53:44.194Z,29.48
2022-12-15T07:56:10.958Z,30.25
2022-12-15T07:58:38.765Z,29.60
2022-12-15T08:01:09.765Z,31.95
2022-12-15T08:03:37.521Z,31.23
2022-12-15T08:06:13.431Z,33.28
2022-12-15T08:08:41.670Z,32.03
2022-12-15T08:11:11.709Z,32.92
2022-12-15T08:16:28.033Z,31.85
2022-12-15T08:18:57.089Z,30.98
2022-12-15T08:21:24.076Z,29.50
2022-12-15T08:23:50.942Z,28.10
2022-12-15T08:26:18.884Z,29.50
2022-12-15T08:28:46.790Z,28.00
2022-12-15T08:31:22.635Z,33.22
2022-12-15T08:33:50.874Z,31.83
2022-12-15T08:36:19.428Z,31.25
2022-12-15T08:38:46.983Z,32.70
2022-12-15T08:41:19.752Z,31.90
2022-12-15T08:43:49.525Z,31.13
2022-12-15T08:46:27.064Z,32.15
2022-12-15T08:48:54.303Z,30.95
2022-12-15T08:51:23.586Z,30.95
2022-12-15T08:53:50.559Z,31.80
2022-12-15T08:56:22.804Z,30.92
2022-12-15T08:58:55.380Z,29.45
2022-12-15T09:01:26.754Z,30.98
2022-12-15T09:03:55.684Z,32.53
2022-12-15T09:06:41.031Z,31.58
2022-12-15T09:09:11.899Z,30.67
2022-12-15T09:11:38.651Z,29.85
2022-12-15T09:14:07.283Z,30.35
2022-12-15T09:16:34.089Z,33.65
2022-12-15T09:19:02.803Z,33.38
2022-12-15T09:21:31.035Z,34.03
2022-12-15T09:24:01.629Z,36.38
2022-12-15T09:26:31.864Z,33.10
2022-12-15T09:28:59.011Z,33.20
2022-12-15T09:31:30.483Z,33.25
2022-12-15T09:34:01.412Z,34.60
2022-12-15T09:36:30.545Z,33.20
2022-12-15T09:38:57.279Z,35.28
2022-12-15T09:41:29.865Z,34.28
2022-12-15T09:44:02.703Z,32.97
2022-12-15T09:47:22.301Z,31.25
2022-12-15T09:50:01.034Z,31.67
2022-12-15T09:52:50.361Z,31.98
2022-12-15T09:55:28.395Z,30.00
2022-12-15T09:58:47.536Z,33.17
2022-12-15T10:01:34.883Z,31.95
2022-12-15T10:06:58.607Z,29.10
2022-12-15T10:09:28.917Z,29.58
2022-12-15T10:12:21.906Z,28.92
2022-12-15T10:15:24.598Z,30.40
2022-12-15T10:18:19.101Z,31.02
2022-12-15T10:23:18.152Z,26.63
2022-12-15T10:25:56.462Z,27.45
2022-12-15T10:28:44.818Z,29.45
2022-12-15T10:34:23.717Z,25.85
2022-12-15T10:36:54.258Z,28.65
2022-12-15T10:39:23.323Z,29.00
2022-12-15T10:42:13.940Z,32.10
2022-12-15T10:44:45.642Z,31.08
2022-12-15T10:47:23.891Z,30.75
2022-12-15T10:49:51.059Z,29.13
2022-12-15T10:52:36.142Z,29.98
2022-12-15T10:55:33.136Z,30.85
2022-12-15T10:58:02.743Z,29.67
2022-12-15T11:00:32.591Z,31.55
2022-12-15T11:03:00.075Z,29.40
2022-12-15T11:05:27.432Z,27.83
2022-12-15T11:08:14.844Z,31.02
2022-12-15T11:11:18.333Z,30.02
2022-12-15T11:14:11.284Z,29.98
2022-12-15T11:16:50.762Z,27.85
2022-12-15T11:19:40.110Z,29.40
2022-12-15T11:22:39.671Z,30.02
2022-12-15T11:25:24.983Z,28.10
2022-12-15T11:27:57.905Z,26.65
2022-12-15T11:30:45.486Z,22.13
2022-12-15T11:33:12.279Z,29.65
2022-12-15T11:36:13.677Z,28.08
2022-12-15T11:39:36.087Z,30.33
2022-12-15T11:42:26.814Z,26.40
2022-12-15T11:45:14.112Z,28.45
2022-12-15T11:47:52.246Z,31.05
2022-12-15T11:51:06.204Z,29.25
2022-12-15T11:54:09.668Z,27.75
2022-12-15T11:57:23.098Z,28.13
2022-12-15T12:00:15.451Z,27.75
2022-12-15T12:03:36.508Z,26.85
2022-12-15T12:06:16.774Z,30.02
2022-12-15T12:09:07.294Z,28.75
2022-12-15T12:12:16.204Z,30.05
2022-12-15T12:15:01.497Z,28.58
2022-12-15T12:17:57.997Z,33.67
2022-12-15T12:20:54.677Z,29.67
2022-12-15T12:23:30.454Z,31.48
2022-12-15T12:26:19.124Z,31.15
2022-12-15T12:29:00.043Z,32.33
2022-12-15T12:32:00.438Z,29.27
2022-12-15T12:34:51.086Z,29.00
2022-12-15T12:38:04.997Z,29.45
2022-12-15T12:41:06.519Z,33.63
2022-12-15T12:43:45.785Z,29.38
2022-12-15T12:46:54.524Z,29.45
2022-12-15T12:49:50.407Z,32.57
2022-12-15T12:52:32.054Z,26.48
2022-12-15T12:55:08.178Z,26.08
2022-12-15T12:57:43.520Z,26.63
2022-12-15T13:00:22.673Z,28.95
2022-12-15T13:02:52.674Z,27.38
2022-12-15T13:05:34.703Z,23.35
2022-12-15T13:08:06.885Z,24.08
2022-12-15T13:10:47.386Z,27.02
2022-12-15T13:13:29.881Z,28.63
2022-12-15T13:16:17.952Z,26.67
2022-12-15T13:19:02.096Z,26.35
2022-12-15T13:21:44.260Z,32.38
2022-12-15T13:24:30.325Z,27.13
2022-12-15T13:27:14.426Z,31.23
2022-12-15T13:30:14.143Z,26.40
2022-12-15T13:32:51.319Z,25.38
2022-12-15T13:35:31.498Z,24.88
2022-12-15T13:38:04.265Z,28.40
2022-12-15T13:40:37.971Z,26.42
2022-12-15T13:43:04.604Z,24.50
2022-12-15T13:45:35.811Z,27.17
2022-12-15T13:48:21.488Z,25.92
2022-12-15T13:51:26.355Z,25.50
2022-12-15T13:54:18.912Z,22.02
2022-12-15T13:57:05.113Z,25.40
2022-12-15T13:59:56.488Z,24.90
2022-12-15T14:02:36.172Z,24.00
2022-12-15T14:05:24.124Z,23.90
2022-12-15T14:07:54.990Z,24.52
2022-12-15T14:10:27.948Z,26.23
2022-12-15T14:12:58.065Z,23.88
2022-12-15T14:15:32.724Z,25.42
2022-12-15T14:18:02.494Z,23.17
2022-12-15T14:20:38.771Z,26.38
2022-12-15T14:23:25.988Z,26.98
2022-12-15T14:26:15.193Z,27.73
2022-12-15T14:28:46.239Z,23.10
2022-12-15T14:31:25.540Z,25.67
2022-12-15T14:34:23.041Z,24.67
2022-12-15T14:36:51.238Z,23.15
2022-12-15T14:39:32.046Z,25.88
2022-12-15T14:42:01.451Z,23.55
2022-12-15T14:44:39.709Z,25.77
2022-12-15T14:47:23.608Z,23.77
2022-12-15T14:49:51.743Z,24.60
2022-12-15T14:52:42.377Z,26.35
2022-12-15T14:55:35.307Z,23.85
2022-12-15T14:58:21.412Z,22.95
2022-12-15T15:00:52.610Z,24.65
2022-12-15T15:03:42.449Z,28.00
2022-12-15T15:06:11.898Z,26.45
2022-12-15T15:08:51.529Z,26.20
2022-12-15T15:11:32.503Z,23.23
2022-12-15T15:14:05.916Z,24.85
2022-12-15T15:16:32.753Z,24.95
2022-12-15T15:19:04.358Z,27.65
2022-12-15T15:21:36.963Z,28.65
2022-12-15T15:24:09.717Z,27.88
2022-12-15T15:26:37.888Z,27.42
2022-12-15T15:29:38.465Z,27.25
2022-12-15T15:32:17.979Z,30.20
2022-12-15T15:34:45.221Z,27.25
2022-12-15T15:37:24.281Z,24.55
2022-12-15T15:39:53.969Z,26.95
2022-12-15T15:42:21.390Z,25.10
2022-12-15T15:44:48.172Z,24.10
2022-12-15T15:47:24.943Z,26.20
2022-12-15T15:49:54.765Z,24.30
2022-12-15T15:52:22.413Z,25.15
2022-12-15T15:54:49.993Z,26.88
2022-12-15T15:57:19.252Z,29.23
2022-12-15T15:59:46.924Z,28.90
2022-12-15T16:02:14.824Z,27.10
2022-12-15T16:04:43.132Z,27.95
2022-12-15T16:07:24.585Z,28.35
2022-12-15T16:09:53.581Z,26.55
2022-12-15T16:12:42.565Z,28.73
2022-12-15T16:15:28.575Z,26.27
2022-12-15T16:17:55.478Z,26.15
2022-12-15T16:20:27.050Z,29.83
2022-12-15T16:22:59.237Z,29.30
2022-12-15T16:25:50.363Z,37.40
2022-12-15T16:28:30.007Z,35.17
2022-12-15T16:30:58.791Z,34.03
2022-12-15T16:33:25.872Z,36.13
2022-12-15T16:35:53.984Z,35.53
2022-12-15T16:38:29.223Z,33.17
2022-12-15T16:40:58.971Z,32.00
2022-12-15T16:43:31.458Z,31.70
2022-12-15T16:46:03.369Z,31.98
2022-12-15T16:48:30.521Z,34.72
2022-12-15T16:50:59.155Z,29.45
2022-12-15T16:53:34.319Z,27.38
2022-12-15T16:56:06.451Z,28.75
2022-12-15T16:58:36.570Z,31.27
2022-12-15T17:01:04.288Z,27.08
2022-12-15T17:03:31.349Z,28.02
2022-12-15T17:06:03.904Z,29.10
2022-12-15T17:08:42.156Z,27.85
2022-12-15T17:11:29.072Z,26.38
2022-12-15T17:14:00.797Z,27.08
2022-12-15T17:16:29.277Z,25.85
2022-12-15T17:18:56.123Z,27.92
2022-12-15T17:21:45.522Z,26.52
2022-12-15T17:24:17.170Z,27.40
2022-12-15T17:26:44.625Z,26.25
2022-12-15T17:29:20.258Z,26.90
2022-12-15T17:31:47.284Z,28.40
2022-12-15T17:34:32.337Z,29.17
2022-12-15T17:37:02.541Z,28.05
2022-12-15T17:39:30.889Z,25.13
2022-12-15T17:42:00.845Z,27.30
2022-12-15T17:44:36.258Z,27.15
2022-12-15T17:47:06.805Z,29.92
2022-12-15T17:49:36.834Z,30.17
2022-12-15T17:52:36.090Z,27.70
2022-12-15T17:55:16.616Z,28.27
2022-12-15T17:57:43.337Z,25.10
2022-12-15T18:00:22.249Z,24.48
2022-12-15T18:02:50.229Z,25.30
2022-12-15T18:05:18.677Z,25.27
2022-12-15T18:07:52.716Z,24.75
2022-12-15T18:10:29.891Z,26.50
2022-12-15T18:12:57.177Z,25.05
2022-12-15T18:15:28.185Z,26.42
2022-12-15T18:17:56.784Z,27.55
2022-12-15T18:20:24.058Z,33.42
2022-12-15T18:22:51.998Z,35.20
2022-12-15T18:25:26.130Z,32.00
2022-12-15T18:27:54.700Z,33.78
2022-12-15T18:30:25.627Z,36.42
2022-12-15T18:32:58.475Z,38.28
2022-12-15T18:35:34.886Z,36.88
2022-12-15T18:38:01.602Z,32.15
2022-12-15T18:40:30.041Z,32.47
2022-12-15T18:42:57.043Z,33.70
2022-12-15T18:45:28.266Z,30.38
2022-12-15T18:47:55.274Z,28.35
2022-12-15T18:50:26.443Z,25.85
2022-12-15T18:53:01.464Z,28.73
2022-12-15T18:55:31.299Z,24.73
2022-12-15T18:58:01.722Z,29.23
2022-12-15T19:00:30.356Z,26.48
2022-12-15T19:03:01.122Z,29.45
2022-12-15T19:05:28.992Z,29.15
2022-12-15T19:08:24.679Z,27.88
2022-12-15T19:10:59.260Z,25.83
2022-12-15T19:13:32.980Z,26.30
2022-12-15T19:18:47.465Z,24.90
2022-12-15T19:21:40.230Z,24.35
2022-12-15T19:24:13.045Z,24.38
2022-12-15T19:26:42.514Z,26.63
2022-12-15T19:29:21.913Z,26.35
2022-12-15T19:31:49.700Z,27.50
2022-12-15T19:34:16.557Z,30.73
2022-12-15T19:36:43.470Z,33.25
2022-12-15T19:39:23.130Z,33.45
2022-12-15T19:41:50.745Z,30.08
2022-12-15T19:44:17.585Z,29.60
2022-12-15T19:46:45.033Z,30.23
2022-12-15T19:49:11.789Z,32.35
2022-12-15T19:51:39.965Z,31.88
2022-12-15T19:54:06.769Z,29.70
2022-12-15T19:56:33.528Z,29.65
2022-12-15T19:59:00.271Z,26.95
2022-12-15T20:01:27.223Z,27.50
2022-12-15T20:03:55.371Z,26.75
2022-12-15T20:06:27.377Z,29.13
2022-12-15T20:08:56.239Z,34.53
2022-12-15T20:11:25.594Z,33.65
2022-12-15T20:13:53.812Z,31.38
2022-12-15T20:16:21.928Z,30.02
2022-12-15T20:18:55.218Z,31.05
2022-12-15T20:21:28.320Z,26.40
2022-12-15T20:24:00.443Z,30.47
2022-12-15T20:26:30.456Z,30.30
2022-12-15T20:28:57.983Z,32.00
2022-12-15T20:31:25.949Z,33.72
2022-12-15T20:33:52.969Z,36.70
2022-12-15T20:36:27.639Z,36.05
2022-12-15T20:38:55.728Z,37.03
2022-12-15T20:41:26.938Z,34.28
2022-12-15T20:43:55.830Z,42.30
2022-12-15T20:46:27.268Z,41.58
2022-12-15T20:48:55.372Z,41.50
2022-12-15T20:51:32.173Z,41.85
2022-12-15T20:54:02.404Z,39.13
2022-12-15T20:56:29.468Z,36.88
2022-12-15T20:58:58.256Z,38.88
2022-12-15T21:01:35.203Z,34.83
2022-12-15T21:04:16.087Z,35.72
2022-12-15T21:06:44.329Z,34.13
2022-12-15T21:09:14.374Z,37.70
2022-12-15T21:11:42.241Z,37.22
2022-12-15T21:14:22.607Z,35.75
2022-12-15T21:16:50.182Z,35.83
2022-12-15T21:19:21.731Z,35.80
2022-12-15T21:21:55.086Z,33.97
2022-12-15T21:24:26.907Z,32.10
2022-12-15T21:26:54.882Z,32.33
2022-12-15T21:29:24.749Z,33.88
2022-12-15T21:31:51.683Z,31.63
2022-12-15T21:34:18.528Z,35.80
2022-12-15T21:36:51.728Z,33.08
2022-12-15T21:39:34.199Z,34.30
2022-12-15T21:42:11.258Z,34.25
2022-12-15T21:44:38.024Z,34.42
2022-12-15T21:47:24.822Z,34.17
2022-12-15T21:49:51.884Z,36.10
2022-12-15T21:52:19.931Z,34.25
2022-12-15T21:54:46.724Z,32.83
2022-12-15T21:57:13.533Z,33.80
2022-12-15T21:59:40.437Z,31.63
2022-12-15T22:02:26.464Z,34.80
2022-12-15T22:04:54.974Z,47.83
2022-12-15T22:07:22.001Z,39.70
2022-12-15T22:09:49.834Z,37.40
2022-12-15T22:12:23.322Z,35.53
2022-12-15T22:14:50.099Z,32.45
2022-12-15T22:17:21.819Z,31.58
2022-12-15T22:19:48.562Z,31.77
2022-12-15T22:22:16.575Z,31.52
2022-12-15T22:24:43.764Z,32.58
2022-12-15T22:27:22.668Z,31.60
2022-12-15T22:29:50.399Z,32.15
2022-12-15T22:32:17.694Z,30.70
2022-12-15T22:34:44.578Z,31.63
2022-12-15T22:37:11.302Z,30.10
2022-12-15T22:39:38.016Z,30.33
2022-12-15T22:42:05.781Z,35.25
2022-12-15T22:44:37.614Z,34.85
2022-12-15T22:47:05.896Z,33.72
2022-12-15T22:49:37.913Z,32.38
2022-12-15T22:52:17.814Z,35.00
2022-12-15T22:54:45.995Z,33.47
2022-12-15T22:57:30.927Z,32.05
2022-12-15T23:00:05.588Z,29.17
2022-12-15T23:02:39.151Z,32.47
2022-12-15T23:05:07.231Z,30.27
2022-12-15T23:07:35.545Z,32.70
2022-12-15T23:10:22.232Z,31.35
2022-12-15T23:12:54.183Z,30.40
2022-12-15T23:15:42.606Z,30.42
2022-12-15T23:18:09.902Z,31.20
2022-12-15T23:20:36.766Z,32.28
2022-12-15T23:23:03.812Z,32.85
2022-12-15T23:25:30.740Z,32.03
2022-12-15T23:27:57.525Z,32.97
2022-12-15T23:30:24.477Z,34.03
2022-12-15T23:32:52.036Z,32.00
2022-12-15T23:35:21.988Z,31.42
2022-12-15T23:37:48.742Z,33.55
2022-12-15T23:40:21.193Z,33.92
2022-12-15T23:42:52.200Z,32.03
2022-12-15T23:45:20.277Z,31.13
2022-12-15T23:47:47.028Z,29.85
2022-12-15T23:50:14.152Z,31.08
2022-12-15T23:52:41.337Z,32.20
2022-12-15T23:55:11.344Z,32.53
2022-12-15T23:57:39.278Z,30.73
